createdAt,value
2023-05-09T00:01:07.644Z,99348.75
2023-05-09T00:04:09.442Z,99352.69
2023-05-09T00:07:11.059Z,99349.63
2023-05-09T00:10:12.802Z,99348.75
2023-05-09T00:13:14.719Z,99352.69
2023-05-09T00:16:17.308Z,99347.25
2023-05-09T00:19:19.201Z,99341.78
2023-05-09T00:22:24.304Z,99341.09
2023-05-09T00:25:26.121Z,99321.25
2023-05-09T00:28:27.791Z,99324.03
2023-05-09T00:31:29.545Z,99319.72
2023-05-09T00:34:31.230Z,99323.22
2023-05-09T00:37:32.941Z,99292.41
2023-05-09T00:40:34.720Z,99311.63
2023-05-09T00:43:36.500Z,99314.00
2023-05-09T00:46:40.004Z,99307.81
2023-05-09T00:49:41.680Z,99304.50
2023-05-09T00:52:43.558Z,99305.41
2023-05-09T00:55:45.677Z,99307.78
2023-05-09T00:58:47.882Z,99306.00
2023-05-09T01:01:49.764Z,99306.72
2023-05-09T01:04:51.698Z,99298.91
2023-05-09T01:08:35.991Z,99294.97
2023-05-09T01:12:11.293Z,99297.84
2023-05-09T01:15:36.775Z,99293.25
2023-05-09T01:18:57.428Z,99281.28
2023-05-09T01:22:02.263Z,99276.66
2023-05-09T01:25:20.973Z,99271.75
2023-05-09T01:28:53.706Z,99277.25
2023-05-09T01:31:57.684Z,99271.81
2023-05-09T01:35:02.782Z,99282.00
2023-05-09T01:38:11.858Z,99278.13
2023-05-09T01:41:16.337Z,99275.66
2023-05-09T01:44:18.588Z,99283.47
2023-05-09T01:47:21.240Z,99284.97
2023-05-09T01:50:24.076Z,99277.94
2023-05-09T01:53:28.270Z,99266.97
2023-05-09T01:56:31.438Z,99270.41
2023-05-09T01:59:35.152Z,99259.88
2023-05-09T02:02:37.907Z,99252.75
2023-05-09T02:05:41.806Z,99254.63
2023-05-09T02:08:44.055Z,99241.97
2023-05-09T02:11:46.945Z,99247.06
2023-05-09T02:14:48.562Z,99239.97
2023-05-09T02:17:50.308Z,99238.91
2023-05-09T02:20:52.108Z,99252.63
2023-05-09T02:23:53.897Z,99256.03
2023-05-09T02:26:56.451Z,99241.91
2023-05-09T02:30:02.560Z,99247.16
2023-05-09T02:33:07.856Z,99251.00
2023-05-09T02:36:12.294Z,99252.25
2023-05-09T02:39:14.697Z,99251.28
2023-05-09T02:42:25.215Z,99247.78
2023-05-09T02:45:26.951Z,99253.22
2023-05-09T02:48:28.615Z,99246.00
2023-05-09T02:51:30.399Z,99243.97
2023-05-09T02:54:32.142Z,99252.44
2023-05-09T02:57:34.075Z,99240.75
2023-05-09T03:00:35.817Z,99217.75
2023-05-09T03:03:39.728Z,99232.94
2023-05-09T03:06:41.683Z,99229.84
2023-05-09T03:09:43.460Z,99225.56
2023-05-09T03:12:46.037Z,99226.38
2023-05-09T03:15:47.761Z,99214.94
2023-05-09T03:18:49.453Z,99205.84
2023-05-09T03:21:52.060Z,99208.47
2023-05-09T03:24:53.878Z,99212.22
2023-05-09T03:27:56.144Z,99219.25
2023-05-09T03:30:58.598Z,99216.63
2023-05-09T03:34:02.404Z,99222.84
2023-05-09T03:37:04.295Z,99226.47
2023-05-09T03:40:08.964Z,99226.81
2023-05-09T03:43:17.663Z,99219.44
2023-05-09T03:46:19.383Z,99205.13
2023-05-09T03:49:23.102Z,99204.69
2023-05-09T03:52:27.878Z,99209.44
2023-05-09T03:55:30.460Z,99205.81
2023-05-09T03:58:32.820Z,99211.38
2023-05-09T04:01:35.442Z,99213.63
2023-05-09T04:04:38.814Z,99205.31
2023-05-09T04:07:41.256Z,99202.53
2023-05-09T04:10:43.679Z,99201.38
2023-05-09T04:13:45.365Z,99202.59
2023-05-09T04:16:57.823Z,99211.28
2023-05-09T04:19:59.551Z,99210.56
2023-05-09T04:23:01.974Z,99207.44
2023-05-09T04:26:04.426Z,99213.09
2023-05-09T04:29:06.493Z,99213.19
2023-05-09T04:32:08.499Z,99213.25
2023-05-09T04:35:10.369Z,99211.69
2023-05-09T04:38:16.878Z,99217.94
2023-05-09T04:41:19.122Z,99210.03
2023-05-09T04:44:21.701Z,99209.50
2023-05-09T04:47:23.571Z,99211.94
2023-05-09T04:50:25.564Z,99213.25
2023-05-09T04:53:28.277Z,99194.28
2023-05-09T04:56:30.912Z,99200.75
2023-05-09T04:59:34.037Z,99203.84
2023-05-09T05:02:36.055Z,99204.25
2023-05-09T05:05:37.991Z,99182.69
2023-05-09T05:08:40.467Z,99188.72
2023-05-09T05:11:50.543Z,99185.00
2023-05-09T05:15:00.675Z,99194.31
2023-05-09T05:18:02.547Z,99203.63
2023-05-09T05:21:08.687Z,99188.97
2023-05-09T05:24:10.388Z,99190.63
2023-05-09T05:27:12.323Z,99182.16
2023-05-09T05:30:15.725Z,99186.44
2023-05-09T05:33:18.310Z,99185.66
2023-05-09T05:36:20.065Z,99176.13
2023-05-09T05:39:22.645Z,99193.50
2023-05-09T05:42:24.722Z,99166.28
2023-05-09T05:45:26.848Z,99185.22
2023-05-09T05:48:31.434Z,99185.13
2023-05-09T05:51:33.680Z,99182.16
2023-05-09T05:54:36.272Z,99186.53
2023-05-09T05:57:39.125Z,99170.41
2023-05-09T06:00:43.485Z,99180.13
2023-05-09T06:03:45.528Z,99167.38
2023-05-09T06:06:48.347Z,99176.75
2023-05-09T06:09:52.957Z,99168.44
2023-05-09T06:12:54.769Z,99165.78
2023-05-09T06:16:02.011Z,99176.47
2023-05-09T06:19:09.754Z,99158.69
2023-05-09T06:22:11.584Z,99171.00
2023-05-09T06:25:13.502Z,99165.38
2023-05-09T06:28:15.355Z,99160.63
2023-05-09T06:31:16.988Z,99157.19
2023-05-09T06:34:18.628Z,99156.53
2023-05-09T06:37:20.283Z,99142.16
2023-05-09T06:40:22.239Z,99146.34
2023-05-09T06:43:23.852Z,99149.84
2023-05-09T06:46:25.941Z,99133.63
2023-05-09T06:49:27.583Z,99137.88
2023-05-09T06:52:29.264Z,99132.53
2023-05-09T06:55:30.927Z,99128.13
2023-05-09T06:58:32.616Z,99125.22
2023-05-09T07:01:34.514Z,99121.22
2023-05-09T07:04:36.235Z,99115.63
2023-05-09T07:07:38.032Z,99102.19
2023-05-09T07:10:39.883Z,99104.44
2023-05-09T07:13:41.925Z,99100.50
2023-05-09T07:16:43.604Z,99085.53
2023-05-09T07:19:45.313Z,99092.44
2023-05-09T07:22:47.085Z,99074.00
2023-05-09T07:25:48.772Z,99088.22
2023-05-09T07:28:50.371Z,99076.41
2023-05-09T07:31:52.070Z,99066.66
2023-05-09T07:34:53.760Z,99069.38
2023-05-09T07:37:55.370Z,99055.19
2023-05-09T07:40:57.074Z,99068.59
2023-05-09T07:43:58.691Z,99064.22
2023-05-09T07:47:01.184Z,99064.09
2023-05-09T07:50:02.835Z,99065.31
2023-05-09T07:53:04.584Z,99047.56
2023-05-09T07:56:06.929Z,99037.63
2023-05-09T07:59:08.648Z,99041.91
2023-05-09T08:02:10.456Z,99035.81
2023-05-09T08:05:13.889Z,99036.84
2023-05-09T08:08:15.777Z,99029.84
2023-05-09T08:11:17.489Z,99036.88
2023-05-09T08:14:19.126Z,99021.34
2023-05-09T08:17:20.831Z,99010.59
2023-05-09T08:20:22.489Z,99013.81
2023-05-09T08:23:24.066Z,99007.50
2023-05-09T08:26:27.201Z,99005.00
2023-05-09T08:29:29.998Z,98988.91
2023-05-09T08:32:32.049Z,98979.66
2023-05-09T08:35:33.964Z,98982.84
2023-05-09T08:38:36.545Z,98971.91
2023-05-09T08:41:39.558Z,98963.25
2023-05-09T08:44:41.243Z,98970.69
2023-05-09T08:47:43.040Z,98972.94
2023-05-09T08:50:45.041Z,98967.78
2023-05-09T08:53:47.219Z,98968.94
2023-05-09T08:56:49.404Z,98964.88
2023-05-09T08:59:52.496Z,98972.66
2023-05-09T09:02:54.336Z,98967.59
2023-05-09T09:05:57.863Z,98958.28
2023-05-09T09:09:00.523Z,98957.50
2023-05-09T09:12:06.773Z,98959.28
2023-05-09T09:15:14.938Z,98953.50
2023-05-09T09:18:23.528Z,98951.91
2023-05-09T09:21:25.570Z,98949.47
2023-05-09T09:24:27.285Z,98947.47
2023-05-09T09:27:29.093Z,98949.25
2023-05-09T09:30:30.817Z,98941.25
2023-05-09T09:33:32.515Z,98933.94
2023-05-09T09:36:34.717Z,98925.00
2023-05-09T09:39:36.476Z,98913.41
2023-05-09T09:42:43.590Z,98919.34
2023-05-09T09:45:49.674Z,98924.25
2023-05-09T09:48:55.142Z,98922.31
2023-05-09T09:51:58.561Z,98910.88
2023-05-09T09:55:00.467Z,98907.25
2023-05-09T09:58:02.373Z,98910.78
2023-05-09T10:01:06.500Z,98907.97
2023-05-09T10:04:09.250Z,98901.50
2023-05-09T10:07:13.670Z,98887.06
2023-05-09T10:10:17.275Z,98890.56
2023-05-09T10:13:19.301Z,98880.06
2023-05-09T10:16:28.578Z,98874.56
2023-05-09T10:19:43.396Z,98876.22
2023-05-09T10:22:45.911Z,98863.63
2023-05-09T10:25:54.536Z,98866.53
2023-05-09T10:28:58.432Z,98857.16
2023-05-09T10:32:08.387Z,98856.34
2023-05-09T10:35:11.657Z,98846.63
2023-05-09T10:38:14.097Z,98841.59
2023-05-09T10:41:19.989Z,98838.84
2023-05-09T10:44:24.180Z,98836.16
2023-05-09T10:47:28.012Z,98828.00
2023-05-09T10:50:31.412Z,98816.69
2023-05-09T10:53:44.230Z,98819.06
2023-05-09T10:56:46.056Z,98808.91
2023-05-09T10:59:51.375Z,98805.78
2023-05-09T11:03:08.503Z,98800.69
2023-05-09T11:06:10.259Z,98799.50
2023-05-09T11:09:28.660Z,98793.31
2023-05-09T11:12:30.388Z,98781.50
2023-05-09T11:15:32.027Z,98777.97
2023-05-09T11:18:33.872Z,98772.03
2023-05-09T11:21:36.757Z,98770.41
2023-05-09T11:24:38.737Z,98757.41
2023-05-09T11:27:43.625Z,98761.19
2023-05-09T11:30:45.333Z,98742.66
2023-05-09T11:33:55.100Z,98740.53
2023-05-09T11:37:09.589Z,98733.03
2023-05-09T11:40:12.736Z,98733.63
2023-05-09T11:43:14.830Z,98729.16
2023-05-09T11:46:16.863Z,98723.31
2023-05-09T11:49:19.655Z,98712.59
2023-05-09T11:52:22.224Z,98709.44
2023-05-09T11:55:25.626Z,98707.38
2023-05-09T11:58:28.293Z,98706.22
2023-05-09T12:01:30.563Z,98682.97
2023-05-09T12:04:32.926Z,98686.44
2023-05-09T12:07:34.688Z,98686.38
2023-05-09T12:10:40.187Z,98683.63
2023-05-09T12:13:49.167Z,98673.13
2023-05-09T12:16:50.836Z,98670.59
2023-05-09T12:19:52.927Z,98670.16
2023-05-09T12:22:54.776Z,98666.81
2023-05-09T12:25:57.615Z,98665.63
2023-05-09T12:28:59.586Z,98648.06
2023-05-09T12:32:01.470Z,98651.28
2023-05-09T12:35:03.444Z,98630.00
2023-05-09T12:38:05.200Z,98629.91
2023-05-09T12:41:18.238Z,98640.66
2023-05-09T12:44:29.386Z,98636.38
2023-05-09T12:47:32.504Z,98626.44
2023-05-09T12:50:35.639Z,98623.84
2023-05-09T12:53:41.698Z,98615.78
2023-05-09T12:56:43.515Z,98606.06
2023-05-09T12:59:45.309Z,98621.59
2023-05-09T13:02:50.897Z,98606.34
2023-05-09T13:05:59.874Z,98614.34
2023-05-09T13:09:06.425Z,98607.06
2023-05-09T13:12:10.064Z,98588.56
2023-05-09T13:15:12.495Z,98582.72
2023-05-09T13:18:14.512Z,98579.69
2023-05-09T13:21:16.282Z,98573.94
2023-05-09T13:24:18.025Z,98581.50
2023-05-09T13:27:20.237Z,98575.72
2023-05-09T13:30:22.056Z,98565.06
2023-05-09T13:33:26.553Z,98563.69
2023-05-09T13:36:28.582Z,98553.69
2023-05-09T13:39:31.659Z,98556.41
2023-05-09T13:42:34.733Z,98559.56
2023-05-09T13:45:36.431Z,98559.63
2023-05-09T13:48:38.067Z,98559.47
2023-05-09T13:51:39.667Z,98544.47
2023-05-09T13:54:41.526Z,98537.16
2023-05-09T13:57:43.307Z,98539.63
2023-05-09T14:00:52.805Z,98541.56
2023-05-09T14:03:54.441Z,98538.16
2023-05-09T14:06:56.600Z,98530.75
2023-05-09T14:10:11.396Z,98531.38
2023-05-09T14:13:15.775Z,98516.22
2023-05-09T14:16:17.630Z,98521.56
2023-05-09T14:19:19.917Z,98516.84
2023-05-09T14:22:21.718Z,98515.19
2023-05-09T14:25:23.334Z,98514.31
2023-05-09T14:28:24.975Z,98503.38
2023-05-09T14:31:26.660Z,98511.00
2023-05-09T14:34:28.315Z,98508.97
2023-05-09T14:37:30.364Z,98500.53
2023-05-09T14:40:32.255Z,98501.00
2023-05-09T14:43:33.950Z,98497.47
2023-05-09T14:46:36.996Z,98495.03
2023-05-09T14:49:41.495Z,98497.03
2023-05-09T14:52:44.100Z,98489.72
2023-05-09T14:55:45.801Z,98487.31
2023-05-09T14:58:47.536Z,98495.88
2023-05-09T15:01:51.067Z,98490.84
2023-05-09T15:04:52.935Z,98489.69
2023-05-09T15:07:54.607Z,98477.75
2023-05-09T15:10:57.735Z,98487.13
2023-05-09T15:13:59.729Z,98497.81
2023-05-09T15:17:04.245Z,98491.94
2023-05-09T15:20:07.191Z,98486.56
2023-05-09T15:23:09.238Z,98479.91
2023-05-09T15:26:17.041Z,98499.19
2023-05-09T15:29:19.158Z,98491.47
2023-05-09T15:32:21.145Z,98484.09
2023-05-09T15:35:23.119Z,98489.53
2023-05-09T15:38:24.772Z,98487.31
2023-05-09T15:41:27.290Z,98498.75
2023-05-09T15:44:28.895Z,98493.69
2023-05-09T15:47:30.498Z,98499.16
2023-05-09T15:50:32.371Z,98503.06
2023-05-09T15:53:34.214Z,98514.03
2023-05-09T15:56:36.081Z,98505.38
2023-05-09T15:59:37.773Z,98513.50
2023-05-09T16:02:39.679Z,98506.09
2023-05-09T16:05:41.584Z,98519.00
2023-05-09T16:08:43.359Z,98522.50
2023-05-09T16:11:45.169Z,98518.56
2023-05-09T16:14:46.798Z,98518.91
2023-05-09T16:17:48.508Z,98523.94
2023-05-09T16:20:50.256Z,98517.59
2023-05-09T16:23:51.871Z,98524.25
2023-05-09T16:26:53.756Z,98520.63
2023-05-09T16:29:55.450Z,98523.72
2023-05-09T16:32:57.200Z,98514.28
2023-05-09T16:35:59.236Z,98520.16
2023-05-09T16:39:00.900Z,98519.44
2023-05-09T16:42:02.728Z,98511.16
2023-05-09T16:45:07.321Z,98515.38
2023-05-09T16:48:09.199Z,98510.34
2023-05-09T16:51:10.906Z,98507.97
2023-05-09T16:54:12.977Z,98502.09
2023-05-09T16:57:14.663Z,98502.53
2023-05-09T17:00:17.751Z,98497.38
2023-05-09T17:03:22.586Z,98511.47
2023-05-09T17:06:24.287Z,98501.97
2023-05-09T17:09:26.222Z,98510.47
2023-05-09T17:12:28.008Z,98506.59
2023-05-09T17:15:29.830Z,98491.38
2023-05-09T17:18:37.405Z,98498.44
2023-05-09T17:21:41.720Z,98483.59
2023-05-09T17:24:46.780Z,98493.31
2023-05-09T17:27:49.460Z,98492.56
2023-05-09T17:30:51.412Z,98497.63
2023-05-09T17:33:53.129Z,98494.88
2023-05-09T17:36:54.798Z,98484.22
2023-05-09T17:39:56.472Z,98484.63
2023-05-09T17:42:58.232Z,98476.31
2023-05-09T17:45:59.976Z,98481.84
2023-05-09T17:49:01.978Z,98487.66
2023-05-09T17:52:03.815Z,98471.91
2023-05-09T17:55:06.084Z,98478.59
2023-05-09T17:58:08.239Z,98474.25
2023-05-09T18:01:10.146Z,98465.56
2023-05-09T18:04:12.930Z,98477.97
2023-05-09T18:07:15.096Z,98487.59
2023-05-09T18:10:17.446Z,98477.81
2023-05-09T18:13:19.511Z,98479.72
2023-05-09T18:16:21.602Z,98482.09
2023-05-09T18:19:23.270Z,98466.44
2023-05-09T18:22:25.156Z,98474.53
2023-05-09T18:25:26.820Z,98471.50
2023-05-09T18:28:28.931Z,98469.06
2023-05-09T18:31:31.561Z,98476.13
2023-05-09T18:34:33.745Z,98467.84
2023-05-09T18:37:36.935Z,98470.84
2023-05-09T18:40:38.717Z,98474.72
2023-05-09T18:43:46.009Z,98467.66
2023-05-09T18:46:47.967Z,98469.97
2023-05-09T18:49:49.638Z,98473.44
2023-05-09T18:52:51.398Z,98473.03
2023-05-09T18:55:53.344Z,98462.50
2023-05-09T18:58:55.156Z,98460.81
2023-05-09T19:01:57.087Z,98471.03
2023-05-09T19:05:00.745Z,98462.75
2023-05-09T19:08:03.660Z,98472.53
2023-05-09T19:11:05.433Z,98467.03
2023-05-09T19:14:07.267Z,98471.69
2023-05-09T19:17:09.180Z,98465.03
2023-05-09T19:20:12.527Z,98472.03
2023-05-09T19:23:14.394Z,98475.78
2023-05-09T19:26:16.997Z,98471.44
2023-05-09T19:29:18.822Z,98467.16
2023-05-09T19:32:20.491Z,98472.59
2023-05-09T19:35:22.326Z,98481.56
2023-05-09T19:38:24.420Z,98484.66
2023-05-09T19:41:26.106Z,98479.91
2023-05-09T19:44:27.951Z,98484.28
2023-05-09T19:47:29.646Z,98488.91
2023-05-09T19:50:31.359Z,98479.59
2023-05-09T19:53:33.095Z,98484.97
2023-05-09T19:56:34.899Z,98483.03
2023-05-09T19:59:36.717Z,98488.84
2023-05-09T20:02:39.020Z,98485.34
2023-05-09T20:05:40.829Z,98499.72
2023-05-09T20:08:42.649Z,98473.22
2023-05-09T20:11:44.331Z,98491.56
2023-05-09T20:14:46.033Z,98490.31
2023-05-09T20:17:48.240Z,98489.03
2023-05-09T20:20:50.069Z,98491.72
2023-05-09T20:23:51.747Z,98492.53
2023-05-09T20:26:55.091Z,98482.22
2023-05-09T20:29:56.811Z,98495.88
2023-05-09T20:32:58.818Z,98490.75
2023-05-09T20:36:00.828Z,98490.28
2023-05-09T20:39:03.347Z,98486.81
2023-05-09T20:42:06.530Z,98482.94
2023-05-09T20:45:08.660Z,98498.03
2023-05-09T20:48:10.457Z,98504.56
2023-05-09T20:51:12.153Z,98501.75
2023-05-09T20:54:13.788Z,98486.88
2023-05-09T20:57:15.470Z,98509.72
2023-05-09T21:00:17.478Z,98506.53
2023-05-09T21:03:19.437Z,98507.66
2023-05-09T21:06:21.484Z,98507.25
2023-05-09T21:09:23.132Z,98505.25
2023-05-09T21:12:24.768Z,98502.06
2023-05-09T21:15:26.563Z,98512.59
2023-05-09T21:18:28.336Z,98514.22
2023-05-09T21:21:31.586Z,98521.53
2023-05-09T21:24:33.257Z,98526.53
2023-05-09T21:27:35.137Z,98523.53
2023-05-09T21:30:36.913Z,98527.38
2023-05-09T21:33:38.750Z,98525.16
2023-05-09T21:36:40.707Z,98526.19
2023-05-09T21:39:42.394Z,98509.34
2023-05-09T21:42:44.367Z,98523.19
2023-05-09T21:45:46.249Z,98512.56
2023-05-09T21:48:48.037Z,98518.41
2023-05-09T21:51:49.954Z,98521.84
2023-05-09T21:54:51.656Z,98534.28
2023-05-09T21:57:53.343Z,98535.84
2023-05-09T22:00:55.087Z,98534.22
2023-05-09T22:03:56.840Z,98531.06
2023-05-09T22:06:59.670Z,98529.09
2023-05-09T22:10:01.504Z,98527.75
2023-05-09T22:13:03.217Z,98535.16
2023-05-09T22:16:05.111Z,98534.38
2023-05-09T22:19:06.782Z,98530.09
2023-05-09T22:22:08.436Z,98541.75
2023-05-09T22:25:10.435Z,98541.31
2023-05-09T22:28:12.093Z,98550.53
2023-05-09T22:31:13.796Z,98539.41
2023-05-09T22:34:15.709Z,98538.31
2023-05-09T22:37:17.613Z,98534.00
2023-05-09T22:40:20.627Z,98540.59
2023-05-09T22:43:22.433Z,98533.84
2023-05-09T22:46:24.186Z,98550.97
2023-05-09T22:49:25.956Z,98551.25
2023-05-09T22:52:27.736Z,98570.69
2023-05-09T22:55:29.452Z,98584.31
2023-05-09T22:58:31.111Z,98576.34
2023-05-09T23:01:33.287Z,98590.06
2023-05-09T23:04:35.079Z,98587.00
2023-05-09T23:07:37.539Z,98590.50
2023-05-09T23:10:39.331Z,98593.44
2023-05-09T23:13:40.993Z,98601.38
2023-05-09T23:16:42.918Z,98600.88
2023-05-09T23:19:45.977Z,98617.28
2023-05-09T23:22:49.654Z,98604.78
2023-05-09T23:25:51.345Z,98609.56
2023-05-09T23:28:55.209Z,98597.13
2023-05-09T23:31:57.090Z,98598.34
2023-05-09T23:34:58.766Z,98594.44
2023-05-09T23:38:00.471Z,98607.63
2023-05-09T23:41:02.097Z,98601.28
2023-05-09T23:44:04.049Z,98614.56
2023-05-09T23:47:05.831Z,98605.50
2023-05-09T23:50:08.340Z,98592.19
2023-05-09T23:53:10.086Z,98606.00
2023-05-09T23:56:11.699Z,98587.72
2023-05-09T23:59:13.762Z,98598.66
